sensor_id;sensor_type;location;lat;lon;timestamp;P1;durP1;ratioP1;P2;durP2;ratioP2
11338;SDS011;5724;42.684;23.252;2023-07-08T00:01:22;14.77;;;13.57;;
11338;SDS011;5724;42.684;23.252;2023-07-08T00:03:48;15.50;;;14.18;;
11338;SDS011;5724;42.684;23.252;2023-07-08T00:06:18;18.80;;;14.50;;
11338;SDS011;5724;42.684;23.252;2023-07-08T00:08:47;16.55;;;15.20;;
11338;SDS011;5724;42.684;23.252;2023-07-08T00:11:13;15.50;;;14.30;;
11338;SDS011;5724;42.684;23.252;2023-07-08T00:13:40;16.23;;;14.88;;
11338;SDS011;5724;42.684;23.252;2023-07-08T00:16:12;16.02;;;14.65;;
11338;SDS011;5724;42.684;23.252;2023-07-08T00:18:40;16.70;;;14.82;;
11338;SDS011;5724;42.684;23.252;2023-07-08T00:21:10;15.77;;;14.68;;
11338;SDS011;5724;42.684;23.252;2023-07-08T00:23:50;16.88;;;15.13;;
11338;SDS011;5724;42.684;23.252;2023-07-08T00:28:49;17.15;;;15.75;;
11338;SDS011;5724;42.684;23.252;2023-07-08T00:31:15;15.98;;;14.73;;
11338;SDS011;5724;42.684;23.252;2023-07-08T00:33:41;16.17;;;14.93;;
11338;SDS011;5724;42.684;23.252;2023-07-08T00:36:10;15.60;;;14.48;;
11338;SDS011;5724;42.684;23.252;2023-07-08T00:38:37;16.20;;;15.00;;
11338;SDS011;5724;42.684;23.252;2023-07-08T00:44:03;16.25;;;14.77;;
11338;SDS011;5724;42.684;23.252;2023-07-08T00:49:05;14.48;;;13.30;;
11338;SDS011;5724;42.684;23.252;2023-07-08T00:51:42;15.82;;;14.32;;
11338;SDS011;5724;42.684;23.252;2023-07-08T00:56:47;15.45;;;14.15;;
11338;SDS011;5724;42.684;23.252;2023-07-08T00:59:19;15.65;;;14.18;;
11338;SDS011;5724;42.684;23.252;2023-07-08T01:01:53;14.70;;;13.60;;
11338;SDS011;5724;42.684;23.252;2023-07-08T01:04:22;14.98;;;13.68;;
11338;SDS011;5724;42.684;23.252;2023-07-08T01:06:54;14.25;;;13.05;;
11338;SDS011;5724;42.684;23.252;2023-07-08T01:09:24;14.77;;;13.25;;
11338;SDS011;5724;42.684;23.252;2023-07-08T01:11:54;15.13;;;14.00;;
11338;SDS011;5724;42.684;23.252;2023-07-08T01:14:23;13.95;;;12.98;;
11338;SDS011;5724;42.684;23.252;2023-07-08T01:16:53;14.65;;;13.45;;
11338;SDS011;5724;42.684;23.252;2023-07-08T01:19:19;14.70;;;13.35;;
11338;SDS011;5724;42.684;23.252;2023-07-08T01:24:22;14.25;;;13.35;;
11338;SDS011;5724;42.684;23.252;2023-07-08T01:26:47;14.57;;;13.27;;
11338;SDS011;5724;42.684;23.252;2023-07-08T01:29:13;14.55;;;13.35;;
11338;SDS011;5724;42.684;23.252;2023-07-08T01:31:39;13.63;;;12.63;;
11338;SDS011;5724;42.684;23.252;2023-07-08T01:34:05;14.80;;;13.50;;
11338;SDS011;5724;42.684;23.252;2023-07-08T01:36:34;13.82;;;12.73;;
11338;SDS011;5724;42.684;23.252;2023-07-08T01:39:09;13.18;;;12.32;;
11338;SDS011;5724;42.684;23.252;2023-07-08T01:41:38;13.75;;;12.68;;
11338;SDS011;5724;42.684;23.252;2023-07-08T01:44:04;13.95;;;12.95;;
11338;SDS011;5724;42.684;23.252;2023-07-08T01:46:30;13.77;;;12.82;;
11338;SDS011;5724;42.684;23.252;2023-07-08T01:48:57;13.77;;;12.77;;
11338;SDS011;5724;42.684;23.252;2023-07-08T01:51:25;13.38;;;12.45;;
11338;SDS011;5724;42.684;23.252;2023-07-08T01:53:51;12.75;;;11.82;;
11338;SDS011;5724;42.684;23.252;2023-07-08T01:56:17;12.77;;;11.98;;
11338;SDS011;5724;42.684;23.252;2023-07-08T01:58:43;12.98;;;11.95;;
11338;SDS011;5724;42.684;23.252;2023-07-08T02:01:08;11.95;;;11.25;;
11338;SDS011;5724;42.684;23.252;2023-07-08T02:03:34;12.85;;;11.68;;
11338;SDS011;5724;42.684;23.252;2023-07-08T02:06:00;12.73;;;11.88;;
11338;SDS011;5724;42.684;23.252;2023-07-08T02:08:26;12.40;;;11.50;;
11338;SDS011;5724;42.684;23.252;2023-07-08T02:10:52;12.73;;;11.82;;
11338;SDS011;5724;42.684;23.252;2023-07-08T02:13:20;12.35;;;11.10;;
11338;SDS011;5724;42.684;23.252;2023-07-08T02:15:47;12.75;;;11.77;;
11338;SDS011;5724;42.684;23.252;2023-07-08T02:18:13;12.75;;;11.45;;
11338;SDS011;5724;42.684;23.252;2023-07-08T02:20:38;12.57;;;11.38;;
11338;SDS011;5724;42.684;23.252;2023-07-08T02:23:05;12.45;;;11.55;;
11338;SDS011;5724;42.684;23.252;2023-07-08T02:25:30;13.07;;;11.95;;
11338;SDS011;5724;42.684;23.252;2023-07-08T02:27:56;12.65;;;11.60;;
11338;SDS011;5724;42.684;23.252;2023-07-08T02:30:25;12.02;;;11.32;;
11338;SDS011;5724;42.684;23.252;2023-07-08T02:32:51;11.75;;;10.90;;
11338;SDS011;5724;42.684;23.252;2023-07-08T02:35:22;14.30;;;12.88;;
11338;SDS011;5724;42.684;23.252;2023-07-08T02:37:51;12.65;;;11.63;;
11338;SDS011;5724;42.684;23.252;2023-07-08T02:40:18;12.45;;;11.48;;
11338;SDS011;5724;42.684;23.252;2023-07-08T02:42:44;12.60;;;11.90;;
11338;SDS011;5724;42.684;23.252;2023-07-08T02:45:10;12.27;;;11.27;;
11338;SDS011;5724;42.684;23.252;2023-07-08T02:47:36;12.75;;;11.63;;
11338;SDS011;5724;42.684;23.252;2023-07-08T02:50:01;12.27;;;11.27;;
11338;SDS011;5724;42.684;23.252;2023-07-08T02:52:27;11.65;;;10.93;;
11338;SDS011;5724;42.684;23.252;2023-07-08T02:54:52;12.45;;;11.30;;
11338;SDS011;5724;42.684;23.252;2023-07-08T02:57:18;12.07;;;11.07;;
11338;SDS011;5724;42.684;23.252;2023-07-08T02:59:43;11.50;;;10.55;;
11338;SDS011;5724;42.684;23.252;2023-07-08T03:02:08;12.13;;;11.10;;
11338;SDS011;5724;42.684;23.252;2023-07-08T03:04:34;11.75;;;10.88;;
11338;SDS011;5724;42.684;23.252;2023-07-08T03:07:04;11.38;;;10.25;;
11338;SDS011;5724;42.684;23.252;2023-07-08T03:09:29;11.63;;;10.50;;
11338;SDS011;5724;42.684;23.252;2023-07-08T03:11:57;10.98;;;10.13;;
11338;SDS011;5724;42.684;23.252;2023-07-08T03:14:23;11.73;;;11.02;;
11338;SDS011;5724;42.684;23.252;2023-07-08T03:16:48;10.70;;;9.90;;
11338;SDS011;5724;42.684;23.252;2023-07-08T03:19:13;10.70;;;10.05;;
11338;SDS011;5724;42.684;23.252;2023-07-08T03:21:40;10.40;;;9.40;;
11338;SDS011;5724;42.684;23.252;2023-07-08T03:24:09;9.82;;;9.13;;
11338;SDS011;5724;42.684;23.252;2023-07-08T03:26:36;9.70;;;9.10;;
11338;SDS011;5724;42.684;23.252;2023-07-08T03:29:02;10.15;;;9.55;;
11338;SDS011;5724;42.684;23.252;2023-07-08T03:31:27;10.82;;;9.73;;
11338;SDS011;5724;42.684;23.252;2023-07-08T03:33:53;9.57;;;8.98;;
11338;SDS011;5724;42.684;23.252;2023-07-08T03:36:19;10.07;;;9.38;;
11338;SDS011;5724;42.684;23.252;2023-07-08T03:38:48;12.43;;;9.63;;
11338;SDS011;5724;42.684;23.252;2023-07-08T03:41:14;9.45;;;8.63;;
11338;SDS011;5724;42.684;23.252;2023-07-08T03:43:40;9.25;;;8.68;;
11338;SDS011;5724;42.684;23.252;2023-07-08T03:46:07;9.35;;;8.68;;
11338;SDS011;5724;42.684;23.252;2023-07-08T03:48:35;9.43;;;8.82;;
11338;SDS011;5724;42.684;23.252;2023-07-08T03:51:01;8.85;;;8.15;;
11338;SDS011;5724;42.684;23.252;2023-07-08T03:53:26;8.65;;;8.15;;
11338;SDS011;5724;42.684;23.252;2023-07-08T03:55:51;10.35;;;8.65;;
11338;SDS011;5724;42.684;23.252;2023-07-08T03:58:17;8.68;;;8.02;;
11338;SDS011;5724;42.684;23.252;2023-07-08T04:00:42;8.80;;;8.00;;
11338;SDS011;5724;42.684;23.252;2023-07-08T04:03:09;8.90;;;8.13;;
11338;SDS011;5724;42.684;23.252;2023-07-08T04:05:36;9.23;;;8.43;;
11338;SDS011;5724;42.684;23.252;2023-07-08T04:08:02;9.38;;;8.80;;
11338;SDS011;5724;42.684;23.252;2023-07-08T04:10:27;9.00;;;8.38;;
11338;SDS011;5724;42.684;23.252;2023-07-08T04:12:53;9.10;;;8.70;;
11338;SDS011;5724;42.684;23.252;2023-07-08T04:15:18;9.15;;;8.65;;
11338;SDS011;5724;42.684;23.252;2023-07-08T04:17:45;8.95;;;8.20;;
11338;SDS011;5724;42.684;23.252;2023-07-08T04:20:13;10.00;;;9.02;;
11338;SDS011;5724;42.684;23.252;2023-07-08T04:22:41;9.35;;;8.60;;
11338;SDS011;5724;42.684;23.252;2023-07-08T04:25:06;8.68;;;8.18;;
11338;SDS011;5724;42.684;23.252;2023-07-08T04:27:32;8.68;;;8.00;;
11338;SDS011;5724;42.684;23.252;2023-07-08T04:29:58;8.82;;;8.25;;
11338;SDS011;5724;42.684;23.252;2023-07-08T04:32:23;8.98;;;8.07;;
11338;SDS011;5724;42.684;23.252;2023-07-08T04:34:50;8.90;;;8.02;;
11338;SDS011;5724;42.684;23.252;2023-07-08T04:37:16;8.15;;;7.65;;
11338;SDS011;5724;42.684;23.252;2023-07-08T04:39:42;8.88;;;8.27;;
11338;SDS011;5724;42.684;23.252;2023-07-08T04:42:07;8.60;;;8.18;;
11338;SDS011;5724;42.684;23.252;2023-07-08T04:44:33;9.05;;;8.35;;
11338;SDS011;5724;42.684;23.252;2023-07-08T04:46:58;9.55;;;8.75;;
11338;SDS011;5724;42.684;23.252;2023-07-08T04:49:24;9.50;;;8.77;;
11338;SDS011;5724;42.684;23.252;2023-07-08T04:51:56;9.02;;;8.43;;
11338;SDS011;5724;42.684;23.252;2023-07-08T04:54:23;9.70;;;8.88;;
11338;SDS011;5724;42.684;23.252;2023-07-08T04:56:48;9.20;;;8.70;;
11338;SDS011;5724;42.684;23.252;2023-07-08T04:59:15;9.02;;;8.52;;
11338;SDS011;5724;42.684;23.252;2023-07-08T05:01:42;8.75;;;8.13;;
11338;SDS011;5724;42.684;23.252;2023-07-08T05:04:09;8.70;;;7.97;;
11338;SDS011;5724;42.684;23.252;2023-07-08T05:06:36;8.50;;;7.95;;
11338;SDS011;5724;42.684;23.252;2023-07-08T05:09:02;9.02;;;8.30;;
11338;SDS011;5724;42.684;23.252;2023-07-08T05:11:28;9.38;;;8.68;;
11338;SDS011;5724;42.684;23.252;2023-07-08T05:13:54;8.52;;;8.00;;
11338;SDS011;5724;42.684;23.252;2023-07-08T05:16:20;8.65;;;7.80;;
11338;SDS011;5724;42.684;23.252;2023-07-08T05:18:46;9.25;;;8.40;;
11338;SDS011;5724;42.684;23.252;2023-07-08T05:21:12;8.32;;;7.60;;
11338;SDS011;5724;42.684;23.252;2023-07-08T05:23:37;8.13;;;7.53;;
11338;SDS011;5724;42.684;23.252;2023-07-08T05:26:04;8.45;;;7.80;;
11338;SDS011;5724;42.684;23.252;2023-07-08T05:28:30;8.32;;;7.53;;
11338;SDS011;5724;42.684;23.252;2023-07-08T05:30:56;7.72;;;7.25;;
11338;SDS011;5724;42.684;23.252;2023-07-08T05:33:23;10.35;;;7.60;;
11338;SDS011;5724;42.684;23.252;2023-07-08T05:35:49;8.38;;;7.75;;
11338;SDS011;5724;42.684;23.252;2023-07-08T05:38:15;7.88;;;7.13;;
11338;SDS011;5724;42.684;23.252;2023-07-08T05:40:40;7.55;;;6.97;;
11338;SDS011;5724;42.684;23.252;2023-07-08T05:43:06;7.70;;;7.20;;
11338;SDS011;5724;42.684;23.252;2023-07-08T05:45:31;8.30;;;7.47;;
11338;SDS011;5724;42.684;23.252;2023-07-08T05:47:57;7.38;;;6.85;;
11338;SDS011;5724;42.684;23.252;2023-07-08T05:50:22;7.45;;;6.95;;
11338;SDS011;5724;42.684;23.252;2023-07-08T05:52:47;8.52;;;7.78;;
11338;SDS011;5724;42.684;23.252;2023-07-08T05:55:13;7.07;;;6.72;;
11338;SDS011;5724;42.684;23.252;2023-07-08T05:57:40;7.65;;;7.25;;
11338;SDS011;5724;42.684;23.252;2023-07-08T06:00:05;7.93;;;7.53;;
11338;SDS011;5724;42.684;23.252;2023-07-08T06:02:31;7.63;;;7.13;;
11338;SDS011;5724;42.684;23.252;2023-07-08T06:04:57;8.25;;;7.63;;
11338;SDS011;5724;42.684;23.252;2023-07-08T06:07:22;7.55;;;7.15;;
11338;SDS011;5724;42.684;23.252;2023-07-08T06:09:48;6.93;;;6.53;;
11338;SDS011;5724;42.684;23.252;2023-07-08T06:12:13;8.05;;;7.32;;
11338;SDS011;5724;42.684;23.252;2023-07-08T06:14:39;8.32;;;7.57;;
11338;SDS011;5724;42.684;23.252;2023-07-08T06:17:04;7.78;;;7.20;;
11338;SDS011;5724;42.684;23.252;2023-07-08T06:19:30;7.57;;;7.18;;
11338;SDS011;5724;42.684;23.252;2023-07-08T06:21:56;7.65;;;7.05;;
11338;SDS011;5724;42.684;23.252;2023-07-08T06:24:21;6.72;;;6.32;;
11338;SDS011;5724;42.684;23.252;2023-07-08T06:26:47;6.90;;;6.45;;
11338;SDS011;5724;42.684;23.252;2023-07-08T06:29:12;6.65;;;6.25;;
11338;SDS011;5724;42.684;23.252;2023-07-08T06:31:38;7.00;;;6.38;;
11338;SDS011;5724;42.684;23.252;2023-07-08T06:34:03;6.72;;;6.13;;
11338;SDS011;5724;42.684;23.252;2023-07-08T06:36:29;6.35;;;5.85;;
11338;SDS011;5724;42.684;23.252;2023-07-08T06:38:55;6.53;;;5.95;;
11338;SDS011;5724;42.684;23.252;2023-07-08T06:41:21;6.85;;;6.35;;
11338;SDS011;5724;42.684;23.252;2023-07-08T06:43:46;6.40;;;6.10;;
11338;SDS011;5724;42.684;23.252;2023-07-08T06:46:12;6.85;;;5.78;;
11338;SDS011;5724;42.684;23.252;2023-07-08T06:48:37;6.28;;;5.80;;
11338;SDS011;5724;42.684;23.252;2023-07-08T06:51:03;6.30;;;5.90;;
11338;SDS011;5724;42.684;23.252;2023-07-08T06:53:28;5.78;;;5.50;;
11338;SDS011;5724;42.684;23.252;2023-07-08T06:55:54;6.50;;;5.88;;
11338;SDS011;5724;42.684;23.252;2023-07-08T06:58:19;6.57;;;6.15;;
11338;SDS011;5724;42.684;23.252;2023-07-08T07:00:45;9.20;;;6.18;;
11338;SDS011;5724;42.684;23.252;2023-07-08T07:03:11;6.05;;;5.68;;
11338;SDS011;5724;42.684;23.252;2023-07-08T07:05:37;6.18;;;5.75;;
11338;SDS011;5724;42.684;23.252;2023-07-08T07:08:03;6.80;;;6.43;;
11338;SDS011;5724;42.684;23.252;2023-07-08T07:10:29;6.85;;;6.22;;
11338;SDS011;5724;42.684;23.252;2023-07-08T07:12:56;6.45;;;6.05;;
11338;SDS011;5724;42.684;23.252;2023-07-08T07:15:23;6.38;;;6.07;;
11338;SDS011;5724;42.684;23.252;2023-07-08T07:17:50;7.10;;;6.60;;
11338;SDS011;5724;42.684;23.252;2023-07-08T07:20:15;6.85;;;6.32;;
11338;SDS011;5724;42.684;23.252;2023-07-08T07:22:41;6.78;;;5.68;;
11338;SDS011;5724;42.684;23.252;2023-07-08T07:25:07;8.27;;;6.07;;
11338;SDS011;5724;42.684;23.252;2023-07-08T07:27:32;6.13;;;5.68;;
11338;SDS011;5724;42.684;23.252;2023-07-08T07:29:58;6.30;;;5.90;;
11338;SDS011;5724;42.684;23.252;2023-07-08T07:32:26;6.50;;;6.20;;
11338;SDS011;5724;42.684;23.252;2023-07-08T07:34:54;6.90;;;6.40;;
11338;SDS011;5724;42.684;23.252;2023-07-08T07:37:20;6.70;;;6.22;;
11338;SDS011;5724;42.684;23.252;2023-07-08T07:39:46;6.32;;;5.93;;
11338;SDS011;5724;42.684;23.252;2023-07-08T07:42:13;6.80;;;6.40;;
11338;SDS011;5724;42.684;23.252;2023-07-08T07:44:39;7.15;;;6.50;;
11338;SDS011;5724;42.684;23.252;2023-07-08T07:47:05;6.97;;;6.30;;
11338;SDS011;5724;42.684;23.252;2023-07-08T07:49:31;6.53;;;6.05;;
11338;SDS011;5724;42.684;23.252;2023-07-08T07:51:56;6.32;;;5.88;;
11338;SDS011;5724;42.684;23.252;2023-07-08T07:54:22;5.78;;;5.57;;
11338;SDS011;5724;42.684;23.252;2023-07-08T07:56:48;6.10;;;5.70;;
11338;SDS011;5724;42.684;23.252;2023-07-08T07:59:13;5.78;;;5.38;;
11338;SDS011;5724;42.684;23.252;2023-07-08T08:01:39;6.10;;;5.70;;
11338;SDS011;5724;42.684;23.252;2023-07-08T08:04:06;6.53;;;6.10;;
11338;SDS011;5724;42.684;23.252;2023-07-08T08:06:31;6.20;;;5.90;;
11338;SDS011;5724;42.684;23.252;2023-07-08T08:08:57;6.25;;;5.85;;
11338;SDS011;5724;42.684;23.252;2023-07-08T08:11:22;6.50;;;6.10;;
11338;SDS011;5724;42.684;23.252;2023-07-08T08:13:50;5.90;;;5.60;;
11338;SDS011;5724;42.684;23.252;2023-07-08T08:16:16;5.70;;;5.20;;
11338;SDS011;5724;42.684;23.252;2023-07-08T08:18:41;5.80;;;5.55;;
11338;SDS011;5724;42.684;23.252;2023-07-08T08:21:07;6.28;;;5.97;;
11338;SDS011;5724;42.684;23.252;2023-07-08T08:23:32;5.85;;;5.35;;
11338;SDS011;5724;42.684;23.252;2023-07-08T08:25:57;6.18;;;5.75;;
11338;SDS011;5724;42.684;23.252;2023-07-08T08:28:23;5.80;;;5.40;;
11338;SDS011;5724;42.684;23.252;2023-07-08T08:30:49;6.30;;;5.80;;
11338;SDS011;5724;42.684;23.252;2023-07-08T08:33:15;6.10;;;5.55;;
11338;SDS011;5724;42.684;23.252;2023-07-08T08:35:42;6.80;;;6.07;;
11338;SDS011;5724;42.684;23.252;2023-07-08T08:38:08;6.05;;;5.68;;
11338;SDS011;5724;42.684;23.252;2023-07-08T08:40:33;5.88;;;5.68;;
11338;SDS011;5724;42.684;23.252;2023-07-08T08:43:00;6.20;;;5.90;;
11338;SDS011;5724;42.684;23.252;2023-07-08T08:45:29;6.10;;;5.80;;
11338;SDS011;5724;42.684;23.252;2023-07-08T08:48:02;6.55;;;6.05;;
11338;SDS011;5724;42.684;23.252;2023-07-08T08:52:55;6.07;;;5.78;;
11338;SDS011;5724;42.684;23.252;2023-07-08T08:55:23;6.00;;;5.70;;
11338;SDS011;5724;42.684;23.252;2023-07-08T08:57:55;6.15;;;5.85;;
11338;SDS011;5724;42.684;23.252;2023-07-08T09:03:21;5.57;;;5.03;;
11338;SDS011;5724;42.684;23.252;2023-07-08T09:06:00;6.07;;;5.68;;
11338;SDS011;5724;42.684;23.252;2023-07-08T09:08:34;5.97;;;5.68;;
11338;SDS011;5724;42.684;23.252;2023-07-08T09:11:01;6.60;;;6.15;;
11338;SDS011;5724;42.684;23.252;2023-07-08T09:13:35;6.10;;;5.80;;
11338;SDS011;5724;42.684;23.252;2023-07-08T09:16:45;6.30;;;5.80;;
11338;SDS011;5724;42.684;23.252;2023-07-08T09:19:12;6.47;;;5.90;;
11338;SDS011;5724;42.684;23.252;2023-07-08T09:24:18;5.90;;;5.50;;
11338;SDS011;5724;42.684;23.252;2023-07-08T09:26:52;5.57;;;5.18;;
11338;SDS011;5724;42.684;23.252;2023-07-08T09:29:22;5.97;;;5.50;;
11338;SDS011;5724;42.684;23.252;2023-07-08T09:31:48;5.90;;;5.43;;
11338;SDS011;5724;42.684;23.252;2023-07-08T09:34:57;5.75;;;5.45;;
11338;SDS011;5724;42.684;23.252;2023-07-08T09:37:19;5.93;;;5.53;;
11338;SDS011;5724;42.684;23.252;2023-07-08T09:39:57;6.00;;;5.50;;
11338;SDS011;5724;42.684;23.252;2023-07-08T09:42:31;5.45;;;5.05;;
11338;SDS011;5724;42.684;23.252;2023-07-08T09:44:59;5.25;;;5.05;;
11338;SDS011;5724;42.684;23.252;2023-07-08T09:47:36;5.35;;;4.90;;
11338;SDS011;5724;42.684;23.252;2023-07-08T09:50:17;5.53;;;5.22;;
11338;SDS011;5724;42.684;23.252;2023-07-08T09:52:43;5.72;;;5.43;;
11338;SDS011;5724;42.684;23.252;2023-07-08T09:55:12;5.30;;;4.93;;
11338;SDS011;5724;42.684;23.252;2023-07-08T09:57:37;5.47;;;5.18;;
11338;SDS011;5724;42.684;23.252;2023-07-08T10:00:08;5.22;;;4.93;;
11338;SDS011;5724;42.684;23.252;2023-07-08T10:02:49;5.38;;;4.90;;
11338;SDS011;5724;42.684;23.252;2023-07-08T10:05:35;5.30;;;5.10;;
11338;SDS011;5724;42.684;23.252;2023-07-08T10:08:25;5.47;;;5.18;;
11338;SDS011;5724;42.684;23.252;2023-07-08T10:13:53;4.90;;;4.70;;
11338;SDS011;5724;42.684;23.252;2023-07-08T10:18:53;5.25;;;4.95;;
11338;SDS011;5724;42.684;23.252;2023-07-08T10:26:44;4.68;;;4.35;;
11338;SDS011;5724;42.684;23.252;2023-07-08T10:32:02;4.60;;;4.30;;
11338;SDS011;5724;42.684;23.252;2023-07-08T10:37:08;4.32;;;4.13;;
11338;SDS011;5724;42.684;23.252;2023-07-08T10:47:34;4.55;;;4.35;;
11338;SDS011;5724;42.684;23.252;2023-07-08T10:55:14;4.43;;;4.22;;
11338;SDS011;5724;42.684;23.252;2023-07-08T11:03:52;5.00;;;4.65;;
11338;SDS011;5724;42.684;23.252;2023-07-08T11:09:25;4.43;;;4.22;;
11338;SDS011;5724;42.684;23.252;2023-07-08T11:12:00;4.15;;;3.95;;
11338;SDS011;5724;42.684;23.252;2023-07-08T11:14:40;4.63;;;4.28;;
11338;SDS011;5724;42.684;23.252;2023-07-08T11:17:19;4.72;;;4.43;;
11338;SDS011;5724;42.684;23.252;2023-07-08T11:20:02;4.40;;;4.20;;
11338;SDS011;5724;42.684;23.252;2023-07-08T11:22:39;4.43;;;4.22;;
11338;SDS011;5724;42.684;23.252;2023-07-08T11:25:16;4.60;;;4.40;;
11338;SDS011;5724;42.684;23.252;2023-07-08T11:27:43;4.20;;;3.95;;
11338;SDS011;5724;42.684;23.252;2023-07-08T11:30:16;4.50;;;4.22;;
11338;SDS011;5724;42.684;23.252;2023-07-08T11:32:45;4.78;;;4.47;;
11338;SDS011;5724;42.684;23.252;2023-07-08T11:35:17;4.80;;;4.50;;
11338;SDS011;5724;42.684;23.252;2023-07-08T11:37:48;4.68;;;4.47;;
11338;SDS011;5724;42.684;23.252;2023-07-08T11:40:19;4.40;;;4.20;;
11338;SDS011;5724;42.684;23.252;2023-07-08T11:42:48;4.70;;;4.50;;
11338;SDS011;5724;42.684;23.252;2023-07-08T11:45:24;4.65;;;4.13;;
11338;SDS011;5724;42.684;23.252;2023-07-08T11:48:03;4.38;;;4.07;;
11338;SDS011;5724;42.684;23.252;2023-07-08T11:50:32;4.40;;;4.20;;
11338;SDS011;5724;42.684;23.252;2023-07-08T11:53:06;7.43;;;6.85;;
11338;SDS011;5724;42.684;23.252;2023-07-08T11:55:56;4.88;;;4.57;;
11338;SDS011;5724;42.684;23.252;2023-07-08T11:58:26;3.90;;;3.80;;
11338;SDS011;5724;42.684;23.252;2023-07-08T12:01:04;4.18;;;3.97;;
11338;SDS011;5724;42.684;23.252;2023-07-08T12:03:39;4.38;;;4.18;;
11338;SDS011;5724;42.684;23.252;2023-07-08T12:08:53;3.10;;;3.00;;
11338;SDS011;5724;42.684;23.252;2023-07-08T12:11:24;3.63;;;3.38;;
11338;SDS011;5724;42.684;23.252;2023-07-08T12:13:53;3.65;;;3.55;;
11338;SDS011;5724;42.684;23.252;2023-07-08T12:16:21;4.05;;;3.75;;
11338;SDS011;5724;42.684;23.252;2023-07-08T12:18:46;4.18;;;3.90;;
11338;SDS011;5724;42.684;23.252;2023-07-08T12:21:13;3.80;;;3.60;;
11338;SDS011;5724;42.684;23.252;2023-07-08T12:23:43;3.70;;;3.53;;
11338;SDS011;5724;42.684;23.252;2023-07-08T12:26:10;3.42;;;3.22;;
11338;SDS011;5724;42.684;23.252;2023-07-08T12:28:37;4.45;;;4.25;;
11338;SDS011;5724;42.684;23.252;2023-07-08T12:31:08;3.70;;;3.50;;
11338;SDS011;5724;42.684;23.252;2023-07-08T12:33:41;5.40;;;3.47;;
11338;SDS011;5724;42.684;23.252;2023-07-08T12:36:10;3.83;;;3.63;;
11338;SDS011;5724;42.684;23.252;2023-07-08T12:38:45;3.67;;;3.47;;
11338;SDS011;5724;42.684;23.252;2023-07-08T12:41:20;3.50;;;3.20;;
11338;SDS011;5724;42.684;23.252;2023-07-08T12:43:50;3.42;;;3.22;;
11338;SDS011;5724;42.684;23.252;2023-07-08T12:46:17;4.40;;;3.75;;
11338;SDS011;5724;42.684;23.252;2023-07-08T12:48:44;3.58;;;3.25;;
11338;SDS011;5724;42.684;23.252;2023-07-08T12:51:19;3.08;;;2.90;;
11338;SDS011;5724;42.684;23.252;2023-07-08T12:53:48;3.70;;;3.50;;
11338;SDS011;5724;42.684;23.252;2023-07-08T12:56:15;3.53;;;3.30;;
11338;SDS011;5724;42.684;23.252;2023-07-08T12:58:46;3.00;;;2.90;;
11338;SDS011;5724;42.684;23.252;2023-07-08T13:01:19;3.60;;;3.40;;
11338;SDS011;5724;42.684;23.252;2023-07-08T13:03:47;3.13;;;3.00;;
11338;SDS011;5724;42.684;23.252;2023-07-08T13:06:18;4.88;;;3.85;;
11338;SDS011;5724;42.684;23.252;2023-07-08T13:08:47;8.00;;;2.90;;
11338;SDS011;5724;42.684;23.252;2023-07-08T13:11:14;3.35;;;3.15;;
11338;SDS011;5724;42.684;23.252;2023-07-08T13:13:53;4.68;;;4.47;;
11338;SDS011;5724;42.684;23.252;2023-07-08T13:16:24;4.35;;;4.15;;
11338;SDS011;5724;42.684;23.252;2023-07-08T13:18:53;3.45;;;3.25;;
11338;SDS011;5724;42.684;23.252;2023-07-08T13:21:19;4.85;;;3.40;;
11338;SDS011;5724;42.684;23.252;2023-07-08T13:23:44;3.40;;;3.20;;
11338;SDS011;5724;42.684;23.252;2023-07-08T13:26:21;8.20;;;7.75;;
11338;SDS011;5724;42.684;23.252;2023-07-08T13:28:48;3.83;;;3.08;;
11338;SDS011;5724;42.684;23.252;2023-07-08T13:33:47;3.28;;;3.17;;
11338;SDS011;5724;42.684;23.252;2023-07-08T13:36:17;4.45;;;4.22;;
11338;SDS011;5724;42.684;23.252;2023-07-08T13:38:46;3.10;;;2.92;;
11338;SDS011;5724;42.684;23.252;2023-07-08T13:41:15;4.10;;;3.90;;
11338;SDS011;5724;42.684;23.252;2023-07-08T13:43:44;3.40;;;3.10;;
11338;SDS011;5724;42.684;23.252;2023-07-08T13:48:55;3.55;;;3.25;;
11338;SDS011;5724;42.684;23.252;2023-07-08T13:51:24;3.03;;;2.90;;
11338;SDS011;5724;42.684;23.252;2023-07-08T13:54:00;2.78;;;2.58;;
11338;SDS011;5724;42.684;23.252;2023-07-08T13:56:34;4.18;;;3.30;;
11338;SDS011;5724;42.684;23.252;2023-07-08T13:59:02;4.53;;;3.63;;
11338;SDS011;5724;42.684;23.252;2023-07-08T14:01:33;3.08;;;2.97;;
11338;SDS011;5724;42.684;23.252;2023-07-08T14:04:02;3.22;;;3.10;;
11338;SDS011;5724;42.684;23.252;2023-07-08T14:06:30;3.47;;;3.28;;
11338;SDS011;5724;42.684;23.252;2023-07-08T14:09:00;3.10;;;2.97;;
11338;SDS011;5724;42.684;23.252;2023-07-08T14:11:35;3.55;;;3.30;;
11338;SDS011;5724;42.684;23.252;2023-07-08T14:14:01;3.45;;;3.15;;
11338;SDS011;5724;42.684;23.252;2023-07-08T14:16:27;3.78;;;3.58;;
11338;SDS011;5724;42.684;23.252;2023-07-08T14:18:56;3.20;;;2.97;;
11338;SDS011;5724;42.684;23.252;2023-07-08T14:21:25;5.22;;;3.58;;
11338;SDS011;5724;42.684;23.252;2023-07-08T14:23:50;3.38;;;3.13;;
11338;SDS011;5724;42.684;23.252;2023-07-08T14:26:16;3.40;;;3.20;;
11338;SDS011;5724;42.684;23.252;2023-07-08T14:28:41;4.35;;;3.35;;
11338;SDS011;5724;42.684;23.252;2023-07-08T14:31:10;3.22;;;3.05;;
11338;SDS011;5724;42.684;23.252;2023-07-08T14:33:37;4.93;;;3.60;;
11338;SDS011;5724;42.684;23.252;2023-07-08T14:36:07;3.05;;;2.85;;
11338;SDS011;5724;42.684;23.252;2023-07-08T14:38:35;3.35;;;3.15;;
11338;SDS011;5724;42.684;23.252;2023-07-08T14:41:01;3.50;;;3.20;;
11338;SDS011;5724;42.684;23.252;2023-07-08T14:43:27;3.97;;;3.67;;
11338;SDS011;5724;42.684;23.252;2023-07-08T14:45:54;3.47;;;3.28;;
11338;SDS011;5724;42.684;23.252;2023-07-08T14:48:23;3.78;;;3.58;;
11338;SDS011;5724;42.684;23.252;2023-07-08T14:50:49;3.80;;;3.50;;
11338;SDS011;5724;42.684;23.252;2023-07-08T14:53:15;4.43;;;3.47;;
11338;SDS011;5724;42.684;23.252;2023-07-08T14:55:42;3.80;;;3.50;;
11338;SDS011;5724;42.684;23.252;2023-07-08T14:58:17;3.50;;;3.30;;
11338;SDS011;5724;42.684;23.252;2023-07-08T15:00:53;3.67;;;3.38;;
11338;SDS011;5724;42.684;23.252;2023-07-08T15:03:20;4.70;;;4.03;;
11338;SDS011;5724;42.684;23.252;2023-07-08T15:05:45;4.63;;;4.15;;
11338;SDS011;5724;42.684;23.252;2023-07-08T15:08:11;4.20;;;3.90;;
11338;SDS011;5724;42.684;23.252;2023-07-08T15:10:36;4.45;;;3.33;;
11338;SDS011;5724;42.684;23.252;2023-07-08T15:13:08;4.15;;;3.33;;
11338;SDS011;5724;42.684;23.252;2023-07-08T15:15:35;3.88;;;3.53;;
11338;SDS011;5724;42.684;23.252;2023-07-08T15:18:01;4.05;;;3.75;;
11338;SDS011;5724;42.684;23.252;2023-07-08T15:20:31;3.30;;;3.20;;
11338;SDS011;5724;42.684;23.252;2023-07-08T15:22:58;3.78;;;3.47;;
11338;SDS011;5724;42.684;23.252;2023-07-08T15:25:24;4.30;;;3.78;;
11338;SDS011;5724;42.684;23.252;2023-07-08T15:27:52;3.97;;;3.53;;
11338;SDS011;5724;42.684;23.252;2023-07-08T15:30:20;3.63;;;3.42;;
11338;SDS011;5724;42.684;23.252;2023-07-08T15:32:47;3.95;;;3.63;;
11338;SDS011;5724;42.684;23.252;2023-07-08T15:35:14;3.70;;;3.40;;
11338;SDS011;5724;42.684;23.252;2023-07-08T15:37:42;3.75;;;3.55;;
11338;SDS011;5724;42.684;23.252;2023-07-08T15:40:09;3.78;;;3.47;;
11338;SDS011;5724;42.684;23.252;2023-07-08T15:42:39;3.65;;;3.33;;
11338;SDS011;5724;42.684;23.252;2023-07-08T15:45:12;3.72;;;3.53;;
11338;SDS011;5724;42.684;23.252;2023-07-08T15:47:40;4.10;;;3.70;;
11338;SDS011;5724;42.684;23.252;2023-07-08T15:50:12;3.85;;;3.65;;
11338;SDS011;5724;42.684;23.252;2023-07-08T15:52:40;4.10;;;3.63;;
11338;SDS011;5724;42.684;23.252;2023-07-08T15:55:07;3.88;;;3.58;;